オークランド の空港の天気 - METARとTAF

オークランド国際空港 ( NZAA / AKL ) - ニュージーランド オークランド|オークランド
飛行場実況気象(Metar)
観測時間03/26 20:00 NZDT (03/26 07:00 UTC)
風向・風速北東 7m/s
視程10km以上
天気現象弱い雨
全天の4割程度の雲 雲底高度 980m
全天の8割程度の雲 雲底高度 3050m
気温21℃
湿度83%
気圧1012hPa
METARNZAA 260700Z AUTO 04014KT 9999 -RA SCT032/// BKN100/// 21/18 Q1012 TEMPO 3000 SHRA BKN012 FEW020CB
過去の天気等 Google飛行場航空写真 Wunderground天気予報

過去48時間のMETAR

飛行場予報(TAF)
発表時間: 3/26 18:03 NZDT (3/26 05:03 UTC)
予報対象時間: 26日19時 NZDT ~ 27日19時 NZDT
風向・風速北東 8m/s 瞬間風速 13m/s
視程10km以上
天気現象弱いしゅう雨
全天の4割程度の雲 雲底高度 610m
全天の8割程度の雲 雲底高度 910m
26日19時 NZDT ~ 27日5時 NZDT に一時的に
視程5,000m
天気現象
全天の8割程度の雲 雲底高度 370m
少しの塔状積雲 雲底高度 460m
26日20時 NZDT ~ 26日24時 NZDT に 確率 30% で一時的に
視程3,000m
天気現象雷雨
全天の8割程度の雲 雲底高度 270m
少しの積乱雲 雲底高度 460m
27日5時 NZDT から
風向・風速北 3m/s
視程10km以上
天気現象弱いしゅう雨
少しの雲 雲底高度 370m
全天の4割程度の雲 雲底高度 760m
27日5時 NZDT から 確率 40% で
全天の8割程度の雲 雲底高度 370m
27日17時 NZDT ~ 27日19時 NZDT に一時的に
視程4,000m
天気現象しゅう雨
少しの塔状積雲 雲底高度 610m
TAF NZAA 260503Z 2606/2706 04015G25KT 9999 -SHRA SCT020 BKN030
TEMPO 2606/2616 5000 RA BKN012 FEW015TCU
PROB30 TEMPO 2607/2611 3000 TSRA BKN009 FEW015CB
FM261600 36005KT 9999 -SHRA FEW012 SCT025
PROB40 2616/2621 BKN012
TEMPO 2704/2706 4000 SHRA FEW020TCU